Gatesville, TX

6:26 PM CDT on March 22, 2017 (GMT -0500)
Gatesville

Weather History for KGOP - April, 2014

Change the Weather History Date:

Sunday, April 13, 2014

  Actual Average (KHLR) Record (KHLR)
Temperature  
Mean Temperature 72 °F -  
Max Temperature 78 °F 75 °F 89 °F (1998)
Min Temperature 66 °F 57 °F 42 °F (2004)
Cooling Degree Days 7    
Growing Degree Days 22 (Base 50)    
Moisture  
Dew Point 64 °F    
Average Humidity 79    
Maximum Humidity 100    
Minimum Humidity 65    
Precipitation  
Precipitation 0.31 in - - ()
Sea Level Pressure  
Sea Level Pressure 29.77 in    
Wind  
Wind Speed 11 mph (South)    
Max Wind Speed 21 mph    
Max Gust Speed 36 mph    
Visibility 9 miles    
Events Rain , Thunderstorm    
Averages and records for this station are not official NWS values.
T = Trace of Precipitation, MM = Missing Value Source: NWS Daily Summary

Daily Weather History Graph

Daily Weather History Graph

Search for Another Location

Airport or City:

Trip Planner

Search our weather history database for the weather conditions in past years. The results will help you decide how hot, cold, wet, or windy it might be!

Date:

Astronomy

Apr. 13, 2014 Rise Set
Actual Time 7:05 AM CDT 7:58 PM CDT
Civil Twilight 6:40 AM CDT 8:23 PM CDT
Nautical Twilight 6:11 AM CDT 8:52 PM CDT
Astronomical Twilight 5:41 AM CDT 9:23 PM CDT
Moon 6:42 PM CDT (4/13) 5:58 AM CDT (4/13)
Length of Visible Light 13h 43m
Length of Day
12h 53m
Waxing Gibbous, 97% of the Moon is Illuminated
Apr 13
Waxing Gibbous
Apr 15
Full
Apr 22
Last Quarter
Apr 29
New
May 6
First Quarter

Hourly Weather History & Observations

Time (CDT) Temp. Dew Point Humidity Pressure Visibility Wind Dir Wind Speed Gust Speed Precip Events Conditions
12:15 AM 69.8 °F 62.6 °F 78% 29.84 in 10.0 mi South 11.5 mph - N/A   Overcast
12:35 AM 69.8 °F 62.6 °F 78% 29.85 in 10.0 mi South 8.1 mph 18.4 mph N/A   Overcast
12:55 AM 69.8 °F 62.6 °F 78% 29.84 in 10.0 mi South 13.8 mph 19.6 mph N/A   Overcast
1:15 AM 69.8 °F 62.6 °F 78% 29.84 in 10.0 mi South 11.5 mph 18.4 mph N/A   Overcast
1:35 AM 69.8 °F 62.6 °F 78% 29.84 in 10.0 mi South 15.0 mph 23.0 mph N/A   Overcast
1:55 AM 69.8 °F 62.6 °F 78% 29.84 in 10.0 mi South 16.1 mph 21.9 mph N/A   Overcast
2:15 AM 69.8 °F 62.6 °F 78% 29.84 in 10.0 mi South 12.7 mph 24.2 mph N/A   Mostly Cloudy
2:35 AM 69.8 °F 62.6 °F 78% 29.83 in 10.0 mi South 13.8 mph 19.6 mph N/A   Overcast
2:55 AM 69.8 °F 62.6 °F 78% 29.83 in 10.0 mi South 13.8 mph 20.7 mph N/A   Mostly Cloudy
3:15 AM 69.8 °F 62.6 °F 78% 29.83 in 10.0 mi South 17.3 mph 23.0 mph N/A   Mostly Cloudy
3:35 AM 69.8 °F 62.6 °F 78% 29.84 in 10.0 mi South 11.5 mph 20.7 mph N/A   Mostly Cloudy
3:55 AM 69.8 °F 62.6 °F 78% 29.83 in 10.0 mi South 12.7 mph 18.4 mph N/A   Overcast
4:15 AM 69.8 °F 62.6 °F 78% 29.84 in 10.0 mi South 13.8 mph 21.9 mph N/A   Mostly Cloudy
4:35 AM 69.8 °F 62.6 °F 78% 29.84 in 10.0 mi South 11.5 mph 17.3 mph N/A   Mostly Cloudy
4:55 AM 69.8 °F 62.6 °F 78% 29.83 in 10.0 mi South 9.2 mph 16.1 mph N/A   Mostly Cloudy
5:15 AM 69.8 °F 62.6 °F 78% 29.82 in 9.0 mi South 8.1 mph 17.3 mph N/A   Overcast
5:35 AM 69.8 °F 62.6 °F 78% 29.81 in 10.0 mi South 10.4 mph - N/A   Mostly Cloudy
5:55 AM 68.0 °F 62.6 °F 83% 29.80 in 10.0 mi South 10.4 mph 17.3 mph N/A   Mostly Cloudy
6:15 AM 68.0 °F 62.6 °F 83% 29.81 in 10.0 mi South 6.9 mph - N/A   Mostly Cloudy
6:35 AM 68.0 °F 62.6 °F 83% 29.80 in 10.0 mi SSE 9.2 mph - N/A   Scattered Clouds
6:55 AM 68.0 °F 62.6 °F 83% 29.80 in 10.0 mi SSE 8.1 mph - N/A   Mostly Cloudy
7:15 AM 68.0 °F 62.6 °F 83% 29.79 in 10.0 mi SSE 10.4 mph - N/A   Scattered Clouds
7:35 AM 68.0 °F 62.6 °F 83% 29.77 in 10.0 mi SSE 10.4 mph 16.1 mph N/A   Clear
7:55 AM 68.0 °F 62.6 °F 83% 29.78 in 10.0 mi South 8.1 mph - N/A   Clear
8:15 AM 69.8 °F 62.6 °F 78% 29.80 in 10.0 mi South 13.8 mph - N/A   Clear
8:35 AM 69.8 °F 62.6 °F 78% 29.82 in 10.0 mi SSW 11.5 mph 21.9 mph N/A   Partly Cloudy
8:55 AM 69.8 °F 62.6 °F 78% 29.83 in 10.0 mi SSW 10.4 mph - N/A   Mostly Cloudy
9:15 AM 69.8 °F 62.6 °F 78% 29.83 in 10.0 mi South 6.9 mph - N/A   Overcast
9:55 AM 71.6 °F 64.4 °F 78% 29.84 in 10.0 mi SW 10.4 mph 16.1 mph N/A   Overcast
10:15 AM 71.6 °F 64.4 °F 78% 29.84 in 10.0 mi SSW 12.7 mph - N/A   Mostly Cloudy
10:35 AM 71.6 °F 64.4 °F 78% 29.85 in 10.0 mi SSW 10.4 mph - N/A   Mostly Cloudy
10:55 AM 71.6 °F 64.4 °F 78% 29.85 in 10.0 mi SSW 9.2 mph - N/A   Mostly Cloudy
11:15 AM 71.6 °F 64.4 °F 78% 29.84 in 10.0 mi SSW 10.4 mph - N/A   Mostly Cloudy
11:35 AM 71.6 °F 64.4 °F 78% 29.85 in 5.0 mi SSW 8.1 mph - N/A Thunderstorm Mostly Cloudy
11:55 AM 69.8 °F 66.2 °F 88% 29.85 in 1.8 mi Calm Calm - 0.02 in Rain Rain
12:15 PM 68.0 °F 68.0 °F 100% 29.85 in 1.5 mi SW 8.1 mph - 0.07 in Rain Heavy Rain
12:35 PM 66.2 °F 64.4 °F 94% 29.83 in 3.0 mi SSW 10.4 mph - 0.12 in Rain Heavy Rain
12:55 PM 66.2 °F 64.4 °F 94% 29.84 in 2.0 mi SW 12.7 mph - 0.18 in Rain Heavy Rain
1:15 PM 66.2 °F 64.4 °F 94% 29.76 in 1.5 mi South 12.7 mph 20.7 mph 0.11 in Rain Light Rain
1:35 PM 66.2 °F 66.2 °F 100% 29.70 in 4.0 mi South 20.7 mph 27.6 mph 0.11 in Rain Light Rain
1:55 PM 68.0 °F 68.0 °F 100% 29.70 in 5.0 mi South 17.3 mph 35.7 mph 0.11 in   Clear
2:15 PM 69.8 °F 66.2 °F 88% 29.69 in 8.0 mi SSE 16.1 mph 21.9 mph N/A   Clear
2:35 PM 71.6 °F 66.2 °F 83% 29.69 in 10.0 mi South 16.1 mph 21.9 mph N/A   Clear
2:55 PM 73.4 °F 66.2 °F 78% 29.70 in 10.0 mi SSW 6.9 mph 19.6 mph N/A   Clear
3:15 PM 73.4 °F 66.2 °F 78% 29.71 in 10.0 mi Calm Calm - N/A   Clear
3:35 PM 75.2 °F 66.2 °F 73% 29.70 in 10.0 mi Calm Calm - N/A   Clear
3:55 PM 75.2 °F 66.2 °F 73% 29.69 in 10.0 mi SSW 6.9 mph - N/A   Clear
4:35 PM 75.2 °F 64.4 °F 69% 29.69 in 10.0 mi SSW 8.1 mph - N/A   Clear
4:55 PM 77.0 °F 64.4 °F 65% 29.67 in 10.0 mi South 8.1 mph - N/A   Clear
5:15 PM 78.8 °F 66.2 °F 65% 29.67 in 10.0 mi South 8.1 mph - N/A   Clear
5:35 PM 78.8 °F 66.2 °F 65% 29.67 in 10.0 mi SSW 12.7 mph 17.3 mph N/A   Partly Cloudy
5:55 PM 78.8 °F 66.2 °F 65% 29.68 in 10.0 mi SSW 12.7 mph 18.4 mph N/A   Partly Cloudy
6:15 PM 78.8 °F 66.2 °F 65% 29.68 in 10.0 mi South 15.0 mph 19.6 mph N/A   Partly Cloudy
6:35 PM 77.0 °F 66.2 °F 69% 29.67 in 10.0 mi South 10.4 mph - N/A   Partly Cloudy
6:55 PM 77.0 °F 66.2 °F 69% 29.69 in 10.0 mi NNE 4.6 mph - N/A   Clear
7:15 PM 75.2 °F 66.2 °F 73% 29.71 in 10.0 mi NNE 4.6 mph - N/A   Mostly Cloudy
7:35 PM 77.0 °F 66.2 °F 69% 29.71 in 9.0 mi Calm Calm - N/A   Mostly Cloudy
7:55 PM 75.2 °F 68.0 °F 78% 29.71 in 10.0 mi SSE 5.8 mph - N/A   Mostly Cloudy
8:15 PM 75.2 °F 66.2 °F 73% 29.67 in 10.0 mi SSE 11.5 mph - N/A   Partly Cloudy
8:35 PM 73.4 °F 66.2 °F 78% 29.68 in 10.0 mi South 10.4 mph - N/A   Clear
8:55 PM 73.4 °F 68.0 °F 83% 29.69 in 10.0 mi South 10.4 mph - N/A   Partly Cloudy
9:15 PM 71.6 °F 68.0 °F 88% 29.69 in 8.0 mi South 11.5 mph 17.3 mph N/A   Clear
9:35 PM 69.8 °F 62.6 °F 78% 29.69 in 10.0 mi South 8.1 mph - N/A   Clear
9:55 PM 69.8 °F 60.8 °F 73% 29.70 in 10.0 mi ESE 3.5 mph - N/A   Clear
10:15 PM 68.0 °F 62.6 °F 83% 29.70 in 10.0 mi SSE 8.1 mph - N/A   Clear
10:35 PM 66.2 °F 62.6 °F 88% 29.71 in 10.0 mi South 4.6 mph - N/A   Clear
10:55 PM 66.2 °F 60.8 °F 83% 29.72 in 10.0 mi South 12.7 mph - N/A   Clear
11:35 PM 66.2 °F 60.8 °F 83% 29.71 in 10.0 mi Calm Calm - N/A   Scattered Clouds
11:55 PM 66.2 °F 62.6 °F 88% 29.72 in 10.0 mi Calm Calm - N/A   Mostly Cloudy